sensor_id;sensor_type;location;lat;lon;timestamp;pressure;altitude;pressure_sealevel;temperature;humidity
15405;BME280;7801;48.124;11.590;2023-03-16T00:00:46;95792.31;;;8.21;81.97
15405;BME280;7801;48.124;11.590;2023-03-16T00:03:12;95793.09;;;8.12;82.95
15405;BME280;7801;48.124;11.590;2023-03-16T00:05:51;95779.09;;;8.52;84.15
15405;BME280;7801;48.124;11.590;2023-03-16T00:08:18;95787.56;;;8.39;84.12
15405;BME280;7801;48.124;11.590;2023-03-16T00:10:43;95780.41;;;8.29;80.62
15405;BME280;7801;48.124;11.590;2023-03-16T00:13:15;95771.16;;;8.42;83.35
15405;BME280;7801;48.124;11.590;2023-03-16T00:15:48;95768.78;;;8.20;82.58
15405;BME280;7801;48.124;11.590;2023-03-16T00:18:13;95781.75;;;7.91;82.59
15405;BME280;7801;48.124;11.590;2023-03-16T00:20:39;95777.00;;;8.03;84.05
15405;BME280;7801;48.124;11.590;2023-03-16T00:23:04;95780.41;;;8.14;83.07
15405;BME280;7801;48.124;11.590;2023-03-16T00:25:30;95770.37;;;8.41;84.15
15405;BME280;7801;48.124;11.590;2023-03-16T00:27:57;95767.47;;;8.43;80.77
15405;BME280;7801;48.124;11.590;2023-03-16T00:30:23;95774.34;;;8.44;81.03
15405;BME280;7801;48.124;11.590;2023-03-16T00:32:48;95770.84;;;8.58;82.01
15405;BME280;7801;48.124;11.590;2023-03-16T00:35:13;95777.53;;;8.00;80.31
15405;BME280;7801;48.124;11.590;2023-03-16T00:37:39;95768.53;;;8.37;80.88
15405;BME280;7801;48.124;11.590;2023-03-16T00:40:07;95776.50;;;7.86;81.12
15405;BME280;7801;48.124;11.590;2023-03-16T00:42:33;95769.63;;;8.05;81.26
15405;BME280;7801;48.124;11.590;2023-03-16T00:44:59;95766.44;;;7.98;81.05
15405;BME280;7801;48.124;11.590;2023-03-16T00:47:27;95766.47;;;7.88;82.40
15405;BME280;7801;48.124;11.590;2023-03-16T00:49:54;95769.59;;;8.00;79.00
15405;BME280;7801;48.124;11.590;2023-03-16T00:52:19;95770.63;;;7.48;80.69
15405;BME280;7801;48.124;11.590;2023-03-16T00:54:47;95772.50;;;7.73;80.12
15405;BME280;7801;48.124;11.590;2023-03-16T00:57:15;95778.84;;;7.92;80.87
15405;BME280;7801;48.124;11.590;2023-03-16T00:59:43;95779.66;;;8.03;77.51
15405;BME280;7801;48.124;11.590;2023-03-16T01:02:10;95778.31;;;8.21;77.92
15405;BME280;7801;48.124;11.590;2023-03-16T01:04:36;95771.44;;;8.25;77.78
15405;BME280;7801;48.124;11.590;2023-03-16T01:07:03;95767.75;;;7.96;79.38
15405;BME280;7801;48.124;11.590;2023-03-16T01:09:29;95769.63;;;8.10;78.67
15405;BME280;7801;48.124;11.590;2023-03-16T01:11:54;95766.16;;;8.25;77.35
15405;BME280;7801;48.124;11.590;2023-03-16T01:14:21;95764.56;;;8.14;78.05
15405;BME280;7801;48.124;11.590;2023-03-16T01:16:47;95761.38;;;8.22;77.51
15405;BME280;7801;48.124;11.590;2023-03-16T01:19:13;95764.81;;;8.48;77.93
15405;BME280;7801;48.124;11.590;2023-03-16T01:21:40;95764.28;;;8.20;75.42
15405;BME280;7801;48.124;11.590;2023-03-16T01:24:07;95764.56;;;7.53;78.37
15405;BME280;7801;48.124;11.590;2023-03-16T01:26:32;95766.16;;;7.59;77.72
15405;BME280;7801;48.124;11.590;2023-03-16T01:28:57;95767.50;;;7.46;79.36
15405;BME280;7801;48.124;11.590;2023-03-16T01:31:23;95767.22;;;7.58;79.78
15405;BME280;7801;48.124;11.590;2023-03-16T01:33:48;95762.47;;;7.55;77.56
15405;BME280;7801;48.124;11.590;2023-03-16T01:39:35;95767.50;;;7.92;78.90
15405;BME280;7801;48.124;11.590;2023-03-16T01:42:00;95767.78;;;7.85;79.18
15405;BME280;7801;48.124;11.590;2023-03-16T01:44:26;95762.22;;;7.97;78.78
15405;BME280;7801;48.124;11.590;2023-03-16T01:46:57;95762.50;;;7.65;78.40
15405;BME280;7801;48.124;11.590;2023-03-16T01:49:32;95758.00;;;7.66;78.69
15405;BME280;7801;48.124;11.590;2023-03-16T01:52:05;95750.06;;;7.50;79.87
15405;BME280;7801;48.124;11.590;2023-03-16T01:54:44;95746.88;;;7.38;78.96
15405;BME280;7801;48.124;11.590;2023-03-16T01:57:14;95743.91;;;7.09;79.54
15405;BME280;7801;48.124;11.590;2023-03-16T01:59:51;95740.56;;;7.59;78.83
15405;BME280;7801;48.124;11.590;2023-03-16T02:02:21;95746.88;;;7.23;79.70
15405;BME280;7801;48.124;11.590;2023-03-16T02:04:53;95740.06;;;7.68;78.29
15405;BME280;7801;48.124;11.590;2023-03-16T02:07:24;95748.44;;;7.19;79.86
15405;BME280;7801;48.124;11.590;2023-03-16T02:09:52;95737.94;;;7.65;78.22
15405;BME280;7801;48.124;11.590;2023-03-16T02:12:20;95746.91;;;7.79;78.67
15405;BME280;7801;48.124;11.590;2023-03-16T02:14:49;95744.28;;;7.64;79.89
15405;BME280;7801;48.124;11.590;2023-03-16T02:17:18;95745.81;;;7.29;78.99
15405;BME280;7801;48.124;11.590;2023-03-16T02:22:49;95745.59;;;7.61;79.43
15405;BME280;7801;48.124;11.590;2023-03-16T02:25:21;95749.25;;;7.50;76.59
15405;BME280;7801;48.124;11.590;2023-03-16T02:30:41;95747.41;;;7.25;77.77
15405;BME280;7801;48.124;11.590;2023-03-16T02:33:07;95753.06;;;6.86;78.49
15405;BME280;7801;48.124;11.590;2023-03-16T02:35:33;95751.81;;;7.09;80.33
15405;BME280;7801;48.124;11.590;2023-03-16T02:37:58;95755.59;;;6.56;81.66
15405;BME280;7801;48.124;11.590;2023-03-16T02:40:25;95753.16;;;7.12;81.06
15405;BME280;7801;48.124;11.590;2023-03-16T02:43:01;95750.06;;;7.40;79.57
15405;BME280;7801;48.124;11.590;2023-03-16T02:45:31;95751.66;;;7.46;79.15
15405;BME280;7801;48.124;11.590;2023-03-16T02:48:04;95742.03;;;6.84;79.69
15405;BME280;7801;48.124;11.590;2023-03-16T02:50:32;95747.13;;;7.21;80.40
15405;BME280;7801;48.124;11.590;2023-03-16T02:52:57;95751.88;;;7.19;80.12
15405;BME280;7801;48.124;11.590;2023-03-16T02:55:22;95749.53;;;7.43;78.18
15405;BME280;7801;48.124;11.590;2023-03-16T02:57:48;95746.34;;;7.51;79.41
15405;BME280;7801;48.124;11.590;2023-03-16T03:00:13;95744.72;;;7.15;80.71
15405;BME280;7801;48.124;11.590;2023-03-16T03:02:46;95740.44;;;6.88;82.07
15405;BME280;7801;48.124;11.590;2023-03-16T03:05:11;95743.16;;;7.19;81.35
15405;BME280;7801;48.124;11.590;2023-03-16T03:07:37;95746.63;;;7.55;80.63
15405;BME280;7801;48.124;11.590;2023-03-16T03:10:04;95741.88;;;7.42;80.71
15405;BME280;7801;48.124;11.590;2023-03-16T03:12:31;95739.75;;;7.54;77.76
15405;BME280;7801;48.124;11.590;2023-03-16T03:14:56;95739.25;;;7.57;78.18
15405;BME280;7801;48.124;11.590;2023-03-16T03:17:22;95736.31;;;7.48;81.02
15405;BME280;7801;48.124;11.590;2023-03-16T03:19:55;95736.31;;;7.23;79.29
15405;BME280;7801;48.124;11.590;2023-03-16T03:22:20;95735.78;;;7.31;79.11
15405;BME280;7801;48.124;11.590;2023-03-16T03:24:45;95742.38;;;7.18;79.17
15405;BME280;7801;48.124;11.590;2023-03-16T03:27:11;95738.13;;;7.02;80.08
15405;BME280;7801;48.124;11.590;2023-03-16T03:29:36;95734.69;;;7.12;79.24
15405;BME280;7801;48.124;11.590;2023-03-16T03:32:03;95743.13;;;7.09;79.26
15405;BME280;7801;48.124;11.590;2023-03-16T03:34:29;95736.28;;;7.18;79.37
15405;BME280;7801;48.124;11.590;2023-03-16T03:36:55;95737.91;;;7.24;79.74
15405;BME280;7801;48.124;11.590;2023-03-16T03:39:21;95738.69;;;7.19;79.94
15405;BME280;7801;48.124;11.590;2023-03-16T03:41:46;95742.03;;;6.84;80.53
15405;BME280;7801;48.124;11.590;2023-03-16T03:44:12;95745.16;;;6.86;80.67
15405;BME280;7801;48.124;11.590;2023-03-16T03:46:37;95735.22;;;7.04;81.18
15405;BME280;7801;48.124;11.590;2023-03-16T03:49:02;95737.28;;;6.92;79.24
15405;BME280;7801;48.124;11.590;2023-03-16T03:51:30;95734.09;;;6.79;80.97
15405;BME280;7801;48.124;11.590;2023-03-16T03:53:57;95731.41;;;6.64;81.84
15405;BME280;7801;48.124;11.590;2023-03-16T03:56:22;95727.28;;;7.09;81.05
15405;BME280;7801;48.124;11.590;2023-03-16T03:58:48;95737.72;;;6.68;78.97
15405;BME280;7801;48.124;11.590;2023-03-16T04:01:13;95732.34;;;7.20;80.26
15405;BME280;7801;48.124;11.590;2023-03-16T04:03:38;95728.03;;;6.84;78.74
15405;BME280;7801;48.124;11.590;2023-03-16T04:06:04;95734.63;;;6.86;80.63
15405;BME280;7801;48.124;11.590;2023-03-16T04:08:31;95737.19;;;6.61;81.05
15405;BME280;7801;48.124;11.590;2023-03-16T04:10:57;95729.31;;;6.71;81.17
15405;BME280;7801;48.124;11.590;2023-03-16T04:13:22;95725.94;;;6.81;80.76
15405;BME280;7801;48.124;11.590;2023-03-16T04:15:47;95717.03;;;7.12;81.19
15405;BME280;7801;48.124;11.590;2023-03-16T04:18:13;95722.00;;;6.99;80.10
15405;BME280;7801;48.124;11.590;2023-03-16T04:20:38;95717.16;;;6.65;79.31
15405;BME280;7801;48.124;11.590;2023-03-16T04:23:04;95730.25;;;6.40;81.96
15405;BME280;7801;48.124;11.590;2023-03-16T04:25:29;95728.31;;;6.82;80.99
15405;BME280;7801;48.124;11.590;2023-03-16T04:27:55;95728.59;;;6.96;80.69
15405;BME280;7801;48.124;11.590;2023-03-16T04:30:20;95730.34;;;6.70;79.38
15405;BME280;7801;48.124;11.590;2023-03-16T04:32:47;95727.19;;;6.68;79.95
15405;BME280;7801;48.124;11.590;2023-03-16T04:35:13;95742.41;;;6.51;81.45
15405;BME280;7801;48.124;11.590;2023-03-16T04:37:39;95736.66;;;6.59;81.01
15405;BME280;7801;48.124;11.590;2023-03-16T04:40:05;95738.06;;;6.92;81.04
15405;BME280;7801;48.124;11.590;2023-03-16T04:42:36;95741.09;;;6.53;81.95
15405;BME280;7801;48.124;11.590;2023-03-16T04:45:02;95741.88;;;6.44;80.46
15405;BME280;7801;48.124;11.590;2023-03-16T04:47:27;95738.84;;;6.25;82.16
15405;BME280;7801;48.124;11.590;2023-03-16T04:49:54;95735.34;;;6.62;81.53
15405;BME280;7801;48.124;11.590;2023-03-16T04:52:19;95728.66;;;6.39;82.15
15405;BME280;7801;48.124;11.590;2023-03-16T04:54:45;95726.25;;;6.32;80.55
15405;BME280;7801;48.124;11.590;2023-03-16T04:57:10;95720.94;;;6.27;81.77
15405;BME280;7801;48.124;11.590;2023-03-16T04:59:35;95721.81;;;6.48;80.89
15405;BME280;7801;48.124;11.590;2023-03-16T05:02:01;95716.56;;;6.48;80.21
15405;BME280;7801;48.124;11.590;2023-03-16T05:04:26;95723.41;;;6.49;81.94
15405;BME280;7801;48.124;11.590;2023-03-16T05:06:52;95722.91;;;6.52;80.76
15405;BME280;7801;48.124;11.590;2023-03-16T05:09:17;95716.97;;;6.25;81.81
15405;BME280;7801;48.124;11.590;2023-03-16T05:11:44;95713.06;;;6.32;81.02
15405;BME280;7801;48.124;11.590;2023-03-16T05:14:10;95714.00;;;6.11;78.94
15405;BME280;7801;48.124;11.590;2023-03-16T05:16:35;95714.47;;;6.03;81.78
15405;BME280;7801;48.124;11.590;2023-03-16T05:19:00;95702.00;;;6.30;81.53
15405;BME280;7801;48.124;11.590;2023-03-16T05:21:26;95709.25;;;6.70;80.18
15405;BME280;7801;48.124;11.590;2023-03-16T05:23:52;95701.44;;;6.85;79.21
15405;BME280;7801;48.124;11.590;2023-03-16T05:26:18;95700.81;;;6.68;79.88
15405;BME280;7801;48.124;11.590;2023-03-16T05:28:44;95697.84;;;6.49;79.01
15405;BME280;7801;48.124;11.590;2023-03-16T05:31:10;95692.31;;;6.46;79.09
15405;BME280;7801;48.124;11.590;2023-03-16T05:33:36;95695.19;;;6.44;78.79
15405;BME280;7801;48.124;11.590;2023-03-16T05:36:02;95702.13;;;6.61;79.79
15405;BME280;7801;48.124;11.590;2023-03-16T05:38:28;95697.22;;;6.27;79.70
15405;BME280;7801;48.124;11.590;2023-03-16T05:40:56;95700.06;;;6.73;80.70
15405;BME280;7801;48.124;11.590;2023-03-16T05:43:26;95696.53;;;6.42;79.36
15405;BME280;7801;48.124;11.590;2023-03-16T05:45:52;95707.69;;;6.64;79.81
15405;BME280;7801;48.124;11.590;2023-03-16T05:48:22;95706.78;;;6.38;80.27
15405;BME280;7801;48.124;11.590;2023-03-16T05:50:50;95707.31;;;6.45;78.81
15405;BME280;7801;48.124;11.590;2023-03-16T05:53:16;95698.56;;;6.30;80.84
15405;BME280;7801;48.124;11.590;2023-03-16T05:55:41;95695.28;;;6.60;80.83
15405;BME280;7801;48.124;11.590;2023-03-16T05:58:06;95692.19;;;6.15;81.02
15405;BME280;7801;48.124;11.590;2023-03-16T06:00:32;95696.59;;;6.05;80.26
15405;BME280;7801;48.124;11.590;2023-03-16T06:02:57;95704.44;;;5.95;79.88
15405;BME280;7801;48.124;11.590;2023-03-16T06:05:23;95702.59;;;6.47;83.20
15405;BME280;7801;48.124;11.590;2023-03-16T06:07:49;95703.97;;;6.65;79.03
15405;BME280;7801;48.124;11.590;2023-03-16T06:10:15;95705.03;;;6.64;78.99
15405;BME280;7801;48.124;11.590;2023-03-16T06:12:43;95696.13;;;6.90;77.62
15405;BME280;7801;48.124;11.590;2023-03-16T06:15:09;95700.34;;;6.92;77.05
15405;BME280;7801;48.124;11.590;2023-03-16T06:17:36;95698.22;;;6.73;79.13
15405;BME280;7801;48.124;11.590;2023-03-16T06:20:03;95700.34;;;6.81;78.12
15405;BME280;7801;48.124;11.590;2023-03-16T06:22:33;95708.00;;;6.88;77.38
15405;BME280;7801;48.124;11.590;2023-03-16T06:24:59;95699.53;;;6.76;77.88
15405;BME280;7801;48.124;11.590;2023-03-16T06:27:24;95708.66;;;6.43;77.57
15405;BME280;7801;48.124;11.590;2023-03-16T06:29:50;95713.12;;;6.42;77.02
15405;BME280;7801;48.124;11.590;2023-03-16T06:32:15;95716.28;;;6.44;78.72
15405;BME280;7801;48.124;11.590;2023-03-16T06:34:41;95713.53;;;6.19;78.94
15405;BME280;7801;48.124;11.590;2023-03-16T06:37:06;95713.28;;;6.93;78.41
15405;BME280;7801;48.124;11.590;2023-03-16T06:39:32;95714.41;;;7.28;75.97
15405;BME280;7801;48.124;11.590;2023-03-16T06:41:57;95720.59;;;6.71;74.85
15405;BME280;7801;48.124;11.590;2023-03-16T06:44:23;95721.44;;;6.81;76.50
15405;BME280;7801;48.124;11.590;2023-03-16T06:46:48;95722.25;;;6.82;78.24
15405;BME280;7801;48.124;11.590;2023-03-16T06:49:13;95716.78;;;7.29;76.42
15405;BME280;7801;48.124;11.590;2023-03-16T06:51:39;95726.78;;;7.02;77.01
15405;BME280;7801;48.124;11.590;2023-03-16T06:54:04;95721.97;;;6.88;76.90
15405;BME280;7801;48.124;11.590;2023-03-16T06:56:29;95717.25;;;6.96;77.33
15405;BME280;7801;48.124;11.590;2023-03-16T06:58:56;95711.44;;;6.88;76.97
15405;BME280;7801;48.124;11.590;2023-03-16T07:01:21;95717.47;;;6.79;77.70
15405;BME280;7801;48.124;11.590;2023-03-16T07:03:47;95718.59;;;7.13;76.19
15405;BME280;7801;48.124;11.590;2023-03-16T07:06:12;95715.44;;;7.11;76.35
15405;BME280;7801;48.124;11.590;2023-03-16T07:08:37;95716.69;;;6.78;74.64
15405;BME280;7801;48.124;11.590;2023-03-16T07:11:03;95707.78;;;7.05;79.39
15405;BME280;7801;48.124;11.590;2023-03-16T07:13:29;95706.19;;;7.09;81.33
15405;BME280;7801;48.124;11.590;2023-03-16T07:15:54;95709.87;;;7.08;80.70
15405;BME280;7801;48.124;11.590;2023-03-16T07:18:21;95703.00;;;6.97;81.29
15405;BME280;7801;48.124;11.590;2023-03-16T07:20:46;95703.84;;;7.17;80.84
15405;BME280;7801;48.124;11.590;2023-03-16T07:23:12;95701.47;;;7.16;79.61
15405;BME280;7801;48.124;11.590;2023-03-16T07:25:37;95709.87;;;6.98;79.16
15405;BME280;7801;48.124;11.590;2023-03-16T07:28:03;95722.50;;;6.80;79.20
15405;BME280;7801;48.124;11.590;2023-03-16T07:30:28;95711.19;;;6.95;80.34
15405;BME280;7801;48.124;11.590;2023-03-16T07:32:54;95707.28;;;7.38;84.07
15405;BME280;7801;48.124;11.590;2023-03-16T07:35:20;95708.28;;;6.97;79.58
15405;BME280;7801;48.124;11.590;2023-03-16T07:37:46;95707.25;;;7.03;78.07
15405;BME280;7801;48.124;11.590;2023-03-16T07:40:11;95707.25;;;7.13;80.38
15405;BME280;7801;48.124;11.590;2023-03-16T07:42:38;95710.69;;;7.13;80.37
15405;BME280;7801;48.124;11.590;2023-03-16T07:45:04;95712.31;;;7.45;81.51
15405;BME280;7801;48.124;11.590;2023-03-16T07:47:30;95721.50;;;7.02;76.47
15405;BME280;7801;48.124;11.590;2023-03-16T07:49:55;95717.28;;;7.16;79.74
15405;BME280;7801;48.124;11.590;2023-03-16T07:52:21;95719.69;;;7.38;79.40
15405;BME280;7801;48.124;11.590;2023-03-16T07:54:47;95726.78;;;7.12;80.98
15405;BME280;7801;48.124;11.590;2023-03-16T07:57:13;95733.97;;;6.49;75.43
15405;BME280;7801;48.124;11.590;2023-03-16T07:59:38;95739.75;;;5.99;74.94
15405;BME280;7801;48.124;11.590;2023-03-16T08:02:04;95745.03;;;5.35;76.95
15405;BME280;7801;48.124;11.590;2023-03-16T08:04:29;95743.62;;;4.78;79.20
15405;BME280;7801;48.124;11.590;2023-03-16T08:06:55;95736.28;;;4.75;79.29
15405;BME280;7801;48.124;11.590;2023-03-16T08:09:25;95747.75;;;4.69;81.15
15405;BME280;7801;48.124;11.590;2023-03-16T08:11:50;95757.09;;;4.82;80.20
15405;BME280;7801;48.124;11.590;2023-03-16T08:14:16;95751.91;;;4.65;80.97
15405;BME280;7801;48.124;11.590;2023-03-16T08:16:41;95755.22;;;4.77;80.29
15405;BME280;7801;48.124;11.590;2023-03-16T08:19:06;95759.62;;;4.72;80.41
15405;BME280;7801;48.124;11.590;2023-03-16T08:21:32;95752.69;;;4.66;81.07
15405;BME280;7801;48.124;11.590;2023-03-16T08:23:58;95762.91;;;4.62;81.37
15405;BME280;7801;48.124;11.590;2023-03-16T08:26:24;95764.38;;;4.53;82.13
15405;BME280;7801;48.124;11.590;2023-03-16T08:28:51;95761.69;;;4.48;82.49
15405;BME280;7801;48.124;11.590;2023-03-16T08:31:17;95763.97;;;4.23;82.76
15405;BME280;7801;48.124;11.590;2023-03-16T08:33:44;95770.81;;;4.24;83.75
15405;BME280;7801;48.124;11.590;2023-03-16T08:36:13;95761.84;;;4.41;82.96
15405;BME280;7801;48.124;11.590;2023-03-16T08:38:39;95759.47;;;4.40;83.00
15405;BME280;7801;48.124;11.590;2023-03-16T08:41:05;95755.87;;;4.90;82.24
15405;BME280;7801;48.124;11.590;2023-03-16T08:43:31;95758.38;;;4.79;81.51
15405;BME280;7801;48.124;11.590;2023-03-16T08:45:57;95760.56;;;4.88;81.03
15405;BME280;7801;48.124;11.590;2023-03-16T08:48:23;95755.63;;;5.45;87.31
15405;BME280;7801;48.124;11.590;2023-03-16T08:50:49;95741.69;;;8.79;97.12
15405;BME280;7801;48.124;11.590;2023-03-16T08:53:16;95741.25;;;10.47;79.23
15405;BME280;7801;48.124;11.590;2023-03-16T08:55:41;95738.09;;;11.67;68.91
15405;BME280;7801;48.124;11.590;2023-03-16T08:58:08;95733.69;;;12.69;60.03
15405;BME280;7801;48.124;11.590;2023-03-16T09:00:33;95728.75;;;13.17;59.13
15405;BME280;7801;48.124;11.590;2023-03-16T09:02:59;95735.06;;;13.57;54.12
15405;BME280;7801;48.124;11.590;2023-03-16T09:05:25;95735.19;;;13.74;54.92
15405;BME280;7801;48.124;11.590;2023-03-16T09:07:51;95732.16;;;13.90;52.60
15405;BME280;7801;48.124;11.590;2023-03-16T09:10:18;95733.25;;;14.11;51.06
15405;BME280;7801;48.124;11.590;2023-03-16T09:12:44;95737.91;;;14.05;52.49
15405;BME280;7801;48.124;11.590;2023-03-16T09:15:10;95733.56;;;13.87;51.79
15405;BME280;7801;48.124;11.590;2023-03-16T09:17:37;95733.75;;;13.91;51.98
15405;BME280;7801;48.124;11.590;2023-03-16T09:20:05;95730.78;;;13.92;51.58
15405;BME280;7801;48.124;11.590;2023-03-16T09:22:33;95732.78;;;13.87;51.62
15405;BME280;7801;48.124;11.590;2023-03-16T09:24:59;95734.56;;;13.77;50.97
15405;BME280;7801;48.124;11.590;2023-03-16T09:27:25;95741.47;;;13.56;51.66
15405;BME280;7801;48.124;11.590;2023-03-16T09:29:50;95740.97;;;13.54;51.64
15405;BME280;7801;48.124;11.590;2023-03-16T09:32:17;95738.22;;;13.59;50.27
15405;BME280;7801;48.124;11.590;2023-03-16T09:34:42;95736.12;;;13.56;51.04
15405;BME280;7801;48.124;11.590;2023-03-16T09:37:08;95735.06;;;13.57;50.50
15405;BME280;7801;48.124;11.590;2023-03-16T09:39:34;95742.47;;;13.83;49.49
15405;BME280;7801;48.124;11.590;2023-03-16T09:42:16;95737.59;;;14.29;48.28
15405;BME280;7801;48.124;11.590;2023-03-16T09:47:30;95739.28;;;14.48;49.02
15405;BME280;7801;48.124;11.590;2023-03-16T09:49:59;95742.19;;;14.68;48.05
15405;BME280;7801;48.124;11.590;2023-03-16T09:52:52;95744.06;;;14.68;48.80
15405;BME280;7801;48.124;11.590;2023-03-16T10:12:58;95738.69;;;7.40;67.77
15405;BME280;7801;48.124;11.590;2023-03-16T10:15:28;95738.44;;;7.56;67.33
15405;BME280;7801;48.124;11.590;2023-03-16T10:18:09;95734.22;;;7.50;67.38
15405;BME280;7801;48.124;11.590;2023-03-16T10:20:39;95734.22;;;7.50;67.99
15405;BME280;7801;48.124;11.590;2023-03-16T10:23:33;95735.28;;;7.44;68.67
15405;BME280;7801;48.124;11.590;2023-03-16T10:26:00;95727.31;;;7.14;69.73
15405;BME280;7801;48.124;11.590;2023-03-16T10:28:31;95728.41;;;7.33;69.71
15405;BME280;7801;48.124;11.590;2023-03-16T10:30:59;95727.09;;;7.36;69.93
15405;BME280;7801;48.124;11.590;2023-03-16T10:33:32;95724.19;;;7.57;69.68
15405;BME280;7801;48.124;11.590;2023-03-16T10:36:30;95717.31;;;7.26;69.57
15405;BME280;7801;48.124;11.590;2023-03-16T10:39:01;95716.03;;;7.44;68.09
15405;BME280;7801;48.124;11.590;2023-03-16T10:41:30;95705.44;;;7.18;68.43
15405;BME280;7801;48.124;11.590;2023-03-16T10:43:57;95707.00;;;7.14;69.02
15405;BME280;7801;48.124;11.590;2023-03-16T10:46:27;95708.31;;;7.02;70.36
15405;BME280;7801;48.124;11.590;2023-03-16T10:48:58;95709.87;;;6.98;70.74
15405;BME280;7801;48.124;11.590;2023-03-16T10:51:30;95696.69;;;7.08;70.75
15405;BME280;7801;48.124;11.590;2023-03-16T10:56:55;95704.03;;;6.90;71.95
15405;BME280;7801;48.124;11.590;2023-03-16T10:59:32;95703.03;;;7.12;71.43
15405;BME280;7801;48.124;11.590;2023-03-16T11:02:28;95693.50;;;6.90;71.72
15405;BME280;7801;48.124;11.590;2023-03-16T11:04:49;95692.38;;;6.66;72.81
15405;BME280;7801;48.124;11.590;2023-03-16T11:07:20;95692.41;;;6.76;73.10
15405;BME280;7801;48.124;11.590;2023-03-16T11:09:50;95682.94;;;6.80;73.77
15405;BME280;7801;48.124;11.590;2023-03-16T11:12:29;95677.72;;;7.11;72.81
15405;BME280;7801;48.124;11.590;2023-03-16T11:15:03;95681.97;;;7.22;72.18
15405;BME280;7801;48.124;11.590;2023-03-16T11:17:41;95678.25;;;7.38;71.91
15405;BME280;7801;48.124;11.590;2023-03-16T11:20:15;95670.88;;;7.25;72.10
15405;BME280;7801;48.124;11.590;2023-03-16T11:22:44;95671.91;;;7.14;72.05
15405;BME280;7801;48.124;11.590;2023-03-16T11:25:31;95668.75;;;7.12;71.99
15405;BME280;7801;48.124;11.590;2023-03-16T11:28:25;95669.28;;;7.19;72.08
15405;BME280;7801;48.124;11.590;2023-03-16T11:33:46;95665.84;;;7.34;71.24
15405;BME280;7801;48.124;11.590;2023-03-16T11:36:34;95661.88;;;7.11;71.63
15405;BME280;7801;48.124;11.590;2023-03-16T11:39:27;95668.50;;;7.23;71.07
15405;BME280;7801;48.124;11.590;2023-03-16T11:44:43;95653.47;;;7.44;70.92
15405;BME280;7801;48.124;11.590;2023-03-16T11:53:00;95641.81;;;7.50;69.96
15405;BME280;7801;48.124;11.590;2023-03-16T12:06:55;95616.25;;;7.46;71.09
15405;BME280;7801;48.124;11.590;2023-03-16T12:09:50;95614.91;;;7.53;71.47
15405;BME280;7801;48.124;11.590;2023-03-16T12:15:02;95603.78;;;7.82;68.30
15405;BME280;7801;48.124;11.590;2023-03-16T12:17:34;95604.81;;;7.81;66.66
15405;BME280;7801;48.124;11.590;2023-03-16T12:22:44;95591.38;;;7.77;65.65
15405;BME280;7801;48.124;11.590;2023-03-16T12:25:20;95586.59;;;7.79;65.57
15405;BME280;7801;48.124;11.590;2023-03-16T12:27:49;95586.25;;;8.06;65.61
15405;BME280;7801;48.124;11.590;2023-03-16T12:35:51;95577.00;;;8.09;65.96
15405;BME280;7801;48.124;11.590;2023-03-16T12:38:42;95567.66;;;8.26;66.47
15405;BME280;7801;48.124;11.590;2023-03-16T12:41:21;95566.56;;;8.38;66.59
15405;BME280;7801;48.124;11.590;2023-03-16T12:44:06;95578.19;;;8.37;64.72
15405;BME280;7801;48.124;11.590;2023-03-16T12:47:05;95568.91;;;8.44;63.89
15405;BME280;7801;48.124;11.590;2023-03-16T12:49:35;95563.38;;;8.41;62.08
15405;BME280;7801;48.124;11.590;2023-03-16T12:52:07;95566.25;;;8.49;61.33
15405;BME280;7801;48.124;11.590;2023-03-16T12:54:33;95569.41;;;8.51;61.42
15405;BME280;7801;48.124;11.590;2023-03-16T12:57:03;95565.41;;;8.54;60.04
15405;BME280;7801;48.124;11.590;2023-03-16T12:59:41;95555.91;;;8.53;58.65
15405;BME280;7801;48.124;11.590;2023-03-16T13:02:23;95558.22;;;8.65;58.64
15405;BME280;7801;48.124;11.590;2023-03-16T13:04:57;95553.12;;;8.73;56.82
15405;BME280;7801;48.124;11.590;2023-03-16T13:07:25;95554.44;;;8.76;57.19
15405;BME280;7801;48.124;11.590;2023-03-16T13:10:12;95542.91;;;8.95;55.71
15405;BME280;7801;48.124;11.590;2023-03-16T13:12:41;95555.63;;;8.93;56.49
15405;BME280;7801;48.124;11.590;2023-03-16T13:18:03;95540.75;;;9.03;56.63
15405;BME280;7801;48.124;11.590;2023-03-16T13:20:33;95537.88;;;8.94;55.73
15405;BME280;7801;48.124;11.590;2023-03-16T13:28:29;95531.75;;;8.99;53.46
15405;BME280;7801;48.124;11.590;2023-03-16T13:30:55;95532.72;;;9.13;53.67
15405;BME280;7801;48.124;11.590;2023-03-16T13:33:26;95531.88;;;9.17;53.83
15405;BME280;7801;48.124;11.590;2023-03-16T13:35:53;95532.09;;;9.21;54.23
15405;BME280;7801;48.124;11.590;2023-03-16T13:38:21;95536.47;;;9.36;53.93
15405;BME280;7801;48.124;11.590;2023-03-16T13:40:53;95532.97;;;9.40;54.36
15405;BME280;7801;48.124;11.590;2023-03-16T13:43:22;95534.00;;;9.44;54.39
15405;BME280;7801;48.124;11.590;2023-03-16T13:45:49;95519.03;;;9.35;54.16
15405;BME280;7801;48.124;11.590;2023-03-16T13:48:16;95530.59;;;9.39;53.22
15405;BME280;7801;48.124;11.590;2023-03-16T13:50:42;95528.94;;;9.48;52.50
15405;BME280;7801;48.124;11.590;2023-03-16T13:53:18;95527.13;;;9.43;51.26
15405;BME280;7801;48.124;11.590;2023-03-16T13:55:46;95518.16;;;9.39;51.09
15405;BME280;7801;48.124;11.590;2023-03-16T13:58:33;95519.81;;;9.35;51.49
15405;BME280;7801;48.124;11.590;2023-03-16T14:01:01;95522.09;;;9.42;51.45
15405;BME280;7801;48.124;11.590;2023-03-16T14:03:38;95513.94;;;9.38;52.44
15405;BME280;7801;48.124;11.590;2023-03-16T14:06:20;95512.94;;;9.34;53.02
15405;BME280;7801;48.124;11.590;2023-03-16T14:08:50;95502.22;;;9.44;53.79
15405;BME280;7801;48.124;11.590;2023-03-16T14:11:16;95501.47;;;9.39;54.59
15405;BME280;7801;48.124;11.590;2023-03-16T14:13:41;95503.00;;;9.45;54.06
15405;BME280;7801;48.124;11.590;2023-03-16T14:16:17;95497.72;;;9.45;53.09
15405;BME280;7801;48.124;11.590;2023-03-16T14:18:46;95503.47;;;9.52;51.89
15405;BME280;7801;48.124;11.590;2023-03-16T14:21:21;95510.13;;;9.49;51.93
15405;BME280;7801;48.124;11.590;2023-03-16T14:23:51;95511.69;;;9.50;50.98
15405;BME280;7801;48.124;11.590;2023-03-16T14:26:18;95507.03;;;9.66;49.43
15405;BME280;7801;48.124;11.590;2023-03-16T14:29:01;95499.84;;;9.67;48.75
15405;BME280;7801;48.124;11.590;2023-03-16T14:31:37;95509.34;;;9.49;49.99